Time;durP1;ratioP1;P1;durP2;ratioP2;P2;SDS_P1;SDS_P2;PMS_P1;PMS_P2;Temp;Humidity;BMP_temperature;BMP_pressure;BME280_temperature;BME280_humidity;BME280_pressure;Samples;Min_cycle;Max_cycle;Signal;HPM_P1;HPM_P2
2023/01/04 00:01:34;;;;;;;8.97;8.07;;;;;;;;;;5027546;28;20235;-82
2023/01/04 00:04:02;;;;;;;9.13;8.23;;;;;;;;;;5027184;28;20254;-82
2023/01/04 00:06:31;;;;;;;9.00;7.20;;;;;;;;;;5037900;28;20211;-82
2023/01/04 00:08:59;;;;;;;7.50;6.73;;;;;;;;;;5032800;28;20211;-82
2023/01/04 00:11:28;;;;;;;7.13;6.53;;;;;;;;;;5038679;28;20226;-82
2023/01/04 00:13:58;;;;;;;6.27;5.43;;;;;;;;;;5038495;28;20194;-82
2023/01/04 00:16:28;;;;;;;7.63;6.73;;;;;;;;;;5026513;28;20222;-82
2023/01/04 00:18:57;;;;;;;7.90;7.30;;;;;;;;;;5026221;28;20290;-82
2023/01/04 00:21:26;;;;;;;7.27;6.57;;;;;;;;;;5045294;28;20203;-82
2023/01/04 00:23:55;;;;;;;8.10;7.37;;;;;;;;;;5038245;28;20242;-82
2023/01/04 00:26:24;;;;;;;7.10;6.40;;;;;;;;;;5045914;28;20219;-82
2023/01/04 00:28:58;;;;;;;6.67;6.03;;;;;;;;;;5039869;28;20195;-82
2023/01/04 00:31:26;;;;;;;7.47;6.30;;;;;;;;;;5038731;28;20256;-82
2023/01/04 00:33:55;;;;;;;3.60;3.33;;;;;;;;;;5021677;28;20232;-82
2023/01/04 00:36:24;;;;;;;5.20;4.70;;;;;;;;;;5038504;28;20303;-82
2023/01/04 00:39:06;;;;;;;4.63;3.93;;;;;;;;;;5037870;28;20190;-82
2023/01/04 00:41:37;;;;;;;4.53;4.13;;;;;;;;;;5038205;28;20213;-82
2023/01/04 00:44:27;;;;;;;4.63;3.67;;;;;;;;;;5037698;28;20323;-82
2023/01/04 00:46:55;;;;;;;5.03;4.67;;;;;;;;;;5036715;28;20318;-82
2023/01/04 00:49:24;;;;;;;4.70;4.30;;;;;;;;;;5025120;28;20218;-82
2023/01/04 00:51:52;;;;;;;4.43;4.13;;;;;;;;;;5021465;28;20205;-82
2023/01/04 00:54:21;;;;;;;4.20;3.80;;;;;;;;;;5024601;28;20223;-82
2023/01/04 00:56:49;;;;;;;4.50;3.77;;;;;;;;;;5018496;28;20282;-82
2023/01/04 00:59:19;;;;;;;3.83;3.53;;;;;;;;;;5031404;28;20197;-82
2023/01/04 01:01:49;;;;;;;2.70;2.50;;;;;;;;;;5026393;28;20255;-82
2023/01/04 01:04:19;;;;;;;4.40;4.00;;;;;;;;;;5037854;28;20219;-82
2023/01/04 01:06:47;;;;;;;3.37;2.97;;;;;;;;;;5037878;28;20200;-82
2023/01/04 01:09:16;;;;;;;4.53;3.83;;;;;;;;;;5037873;28;20321;-82
2023/01/04 01:11:44;;;;;;;3.90;3.60;;;;;;;;;;5037646;28;20204;-82
2023/01/04 01:14:15;;;;;;;3.20;2.90;;;;;;;;;;5050842;28;20279;-82
2023/01/04 01:16:44;;;;;;;3.40;3.17;;;;;;;;;;5048626;28;20257;-82
2023/01/04 01:19:25;;;;;;;3.83;3.33;;;;;;;;;;5044282;28;20216;-82
2023/01/04 01:21:55;;;;;;;3.63;3.33;;;;;;;;;;5037824;28;20259;-82
2023/01/04 01:24:24;;;;;;;2.70;2.37;;;;;;;;;;5037986;28;20228;-82
2023/01/04 01:26:53;;;;;;;4.30;3.33;;;;;;;;;;5031335;28;20228;-82
2023/01/04 01:29:21;;;;;;;4.70;4.20;;;;;;;;;;5029291;28;20212;-82
2023/01/04 01:31:50;;;;;;;4.07;3.53;;;;;;;;;;5032200;28;20207;-82
2023/01/04 01:34:18;;;;;;;4.37;2.87;;;;;;;;;;5028865;28;20202;-82
2023/01/04 01:36:49;;;;;;;5.20;3.23;;;;;;;;;;5031430;28;20290;-82
2023/01/04 01:39:17;;;;;;;4.30;2.80;;;;;;;;;;5018363;28;20206;-82
2023/01/04 01:41:45;;;;;;;6.70;4.17;;;;;;;;;;5035972;28;20206;-82
2023/01/04 01:44:32;;;;;;;4.87;3.17;;;;;;;;;;5035596;28;20205;-82
2023/01/04 01:47:01;;;;;;;7.40;4.87;;;;;;;;;;5053368;28;20220;-82
2023/01/04 01:49:31;;;;;;;5.20;3.80;;;;;;;;;;5055906;28;20308;-82
2023/01/04 01:52:05;;;;;;;6.57;4.40;;;;;;;;;;5025160;28;20242;-82
2023/01/04 01:54:36;;;;;;;5.27;3.43;;;;;;;;;;5040402;28;20227;-82
2023/01/04 01:57:05;;;;;;;5.70;2.80;;;;;;;;;;5035407;28;20229;-82
2023/01/04 01:59:34;;;;;;;8.93;4.10;;;;;;;;;;5036785;28;20267;-82
2023/01/04 02:02:03;;;;;;;6.23;3.37;;;;;;;;;;5035693;28;20275;-82
2023/01/04 02:04:31;;;;;;;5.43;3.83;;;;;;;;;;5039228;28;20221;-82
2023/01/04 02:07:01;;;;;;;7.73;5.27;;;;;;;;;;5025673;28;20202;-82
2023/01/04 02:09:31;;;;;;;6.60;4.03;;;;;;;;;;5022373;28;20244;-83
2023/01/04 02:11:59;;;;;;;4.87;2.17;;;;;;;;;;5053228;28;20197;-83
2023/01/04 02:14:27;;;;;;;6.00;3.40;;;;;;;;;;5023487;28;20224;-83
2023/01/04 02:17:05;;;;;;;9.00;3.80;;;;;;;;;;5053563;28;20203;-83
2023/01/04 02:19:57;;;;;;;9.57;4.47;;;;;;;;;;5033622;28;20204;-82
2023/01/04 02:22:52;;;;;;;6.73;3.87;;;;;;;;;;5012780;28;20216;-82
2023/01/04 02:25:31;;;;;;;16.73;6.03;;;;;;;;;;5046735;28;20218;-82
2023/01/04 02:28:02;;;;;;;8.03;3.53;;;;;;;;;;5030581;28;20212;-82
2023/01/04 02:30:55;;;;;;;5.17;3.73;;;;;;;;;;5043828;28;20275;-82
2023/01/04 02:33:29;;;;;;;9.07;4.23;;;;;;;;;;5012981;28;20202;-82
2023/01/04 02:36:01;;;;;;;14.53;8.40;;;;;;;;;;5051106;28;20255;-83
2023/01/04 02:38:32;;;;;;;8.40;4.50;;;;;;;;;;5026478;28;20247;-83
2023/01/04 02:41:04;;;;;;;10.63;3.90;;;;;;;;;;5052836;28;20283;-83
2023/01/04 02:46:25;;;;;;;11.37;4.97;;;;;;;;;;5031715;28;20294;-83
2023/01/04 02:51:41;;;;;;;10.40;5.07;;;;;;;;;;5020515;28;20229;-83
2023/01/04 02:54:11;;;;;;;9.97;3.63;;;;;;;;;;5030356;28;20197;-83
2023/01/04 02:56:45;;;;;;;11.97;4.67;;;;;;;;;;5029056;28;20217;-83
2023/01/04 02:59:24;;;;;;;12.13;4.50;;;;;;;;;;5026023;28;20200;-82
2023/01/04 03:07:40;;;;;;;9.47;3.87;;;;;;;;;;5035670;28;20203;-82
2023/01/04 03:10:13;;;;;;;9.93;4.80;;;;;;;;;;5047195;28;20236;-82
2023/01/04 03:12:42;;;;;;;6.10;3.47;;;;;;;;;;5053377;28;20202;-82
2023/01/04 03:15:13;;;;;;;14.70;4.33;;;;;;;;;;5028253;28;20249;-82
2023/01/04 03:17:45;;;;;;;7.90;3.67;;;;;;;;;;5044961;28;20201;-82
2023/01/04 03:20:15;;;;;;;11.43;4.17;;;;;;;;;;5054700;28;20202;-82
2023/01/04 03:36:47;;;;;;;6.93;3.57;;;;;;;;;;5025196;28;20228;-82
2023/01/04 03:50:34;;;;;;;12.23;5.90;;;;;;;;;;5019564;28;20227;-82
2023/01/04 03:53:04;;;;;;;8.60;4.73;;;;;;;;;;5034854;28;20212;-82
2023/01/04 03:55:34;;;;;;;21.20;6.40;;;;;;;;;;5034769;28;20226;-82
2023/01/04 03:58:02;;;;;;;11.03;4.77;;;;;;;;;;5022194;28;20232;-82
2023/01/04 04:00:31;;;;;;;5.70;3.20;;;;;;;;;;5034876;28;20289;-82
2023/01/04 04:03:06;;;;;;;7.50;4.33;;;;;;;;;;5038918;28;20281;-82
2023/01/04 04:08:29;;;;;;;6.80;3.10;;;;;;;;;;5034394;28;20248;-82
2023/01/04 04:11:28;;;;;;;9.80;5.50;;;;;;;;;;5022367;28;20226;-82
2023/01/04 04:13:47;;;;;;;10.00;4.37;;;;;;;;;;5042420;28;20217;-82
2023/01/04 04:16:16;;;;;;;8.10;4.50;;;;;;;;;;5048892;28;20194;-82
2023/01/04 04:18:44;;;;;;;7.20;3.97;;;;;;;;;;5015408;28;20284;-82
2023/01/04 04:21:12;;;;;;;8.43;5.07;;;;;;;;;;5029683;28;20300;-82
2023/01/04 04:23:42;;;;;;;12.53;5.60;;;;;;;;;;5019551;28;20197;-82
2023/01/04 04:26:11;;;;;;;7.23;3.33;;;;;;;;;;5037436;28;20222;-83
2023/01/04 04:28:39;;;;;;;10.00;4.70;;;;;;;;;;5031304;28;20202;-83
2023/01/04 04:31:07;;;;;;;13.93;4.47;;;;;;;;;;5027384;28;20207;-83
2023/01/04 04:33:36;;;;;;;12.03;4.90;;;;;;;;;;5049962;28;20202;-83
2023/01/04 04:36:04;;;;;;;10.97;4.10;;;;;;;;;;5039650;28;20193;-83
2023/01/04 04:38:33;;;;;;;13.80;5.47;;;;;;;;;;5038515;28;20223;-83
2023/01/04 04:43:53;;;;;;;11.90;3.77;;;;;;;;;;5024727;28;20205;-82
2023/01/04 04:46:22;;;;;;;14.80;5.20;;;;;;;;;;5028044;28;20237;-82
2023/01/04 04:48:51;;;;;;;11.33;4.83;;;;;;;;;;5018423;28;20269;-83
2023/01/04 04:51:19;;;;;;;15.77;5.30;;;;;;;;;;5046475;28;20195;-83
2023/01/04 04:53:47;;;;;;;10.63;4.70;;;;;;;;;;5038036;28;20204;-83
2023/01/04 04:56:17;;;;;;;15.23;6.47;;;;;;;;;;5037743;28;20310;-83
2023/01/04 04:58:46;;;;;;;20.10;4.27;;;;;;;;;;5038336;28;20205;-82
2023/01/04 05:01:14;;;;;;;13.67;4.60;;;;;;;;;;5037709;28;20241;-83
2023/01/04 05:03:43;;;;;;;12.90;3.63;;;;;;;;;;5032169;28;20233;-82
2023/01/04 05:06:11;;;;;;;11.43;4.43;;;;;;;;;;5018078;28;20269;-82
2023/01/04 05:08:40;;;;;;;7.03;3.60;;;;;;;;;;5037629;28;20195;-82
2023/01/04 05:11:09;;;;;;;17.00;5.83;;;;;;;;;;5055022;28;20265;-82
2023/01/04 05:13:38;;;;;;;15.50;4.47;;;;;;;;;;5043512;28;20202;-82
2023/01/04 05:16:07;;;;;;;6.37;2.63;;;;;;;;;;5035746;28;20513;-82
2023/01/04 05:18:36;;;;;;;10.93;3.37;;;;;;;;;;5018602;28;20206;-82
2023/01/04 05:21:04;;;;;;;12.33;4.13;;;;;;;;;;5031188;28;20206;-82
2023/01/04 05:23:33;;;;;;;10.37;3.77;;;;;;;;;;5027984;28;20215;-82
2023/01/04 05:26:02;;;;;;;11.00;3.90;;;;;;;;;;5033263;28;20207;-82
2023/01/04 05:28:31;;;;;;;7.43;3.30;;;;;;;;;;5018732;28;20205;-82
2023/01/04 05:31:00;;;;;;;7.53;2.53;;;;;;;;;;5053491;28;20211;-82
2023/01/04 05:33:29;;;;;;;5.57;2.50;;;;;;;;;;5044834;28;20271;-82
2023/01/04 05:35:59;;;;;;;10.10;3.37;;;;;;;;;;5050261;28;20266;-82
2023/01/04 05:38:27;;;;;;;6.83;2.77;;;;;;;;;;5028965;28;20255;-82
2023/01/04 05:40:56;;;;;;;9.73;3.63;;;;;;;;;;5019105;28;20234;-82
2023/01/04 05:43:25;;;;;;;10.70;3.90;;;;;;;;;;5035384;28;20222;-82
2023/01/04 05:45:54;;;;;;;7.70;3.73;;;;;;;;;;5030056;28;20205;-82
2023/01/04 05:48:25;;;;;;;11.63;3.23;;;;;;;;;;5048102;28;20211;-82
2023/01/04 05:50:54;;;;;;;10.93;2.53;;;;;;;;;;5036819;28;20209;-82
2023/01/04 05:53:22;;;;;;;6.07;2.33;;;;;;;;;;5023525;28;20207;-82
2023/01/04 05:55:50;;;;;;;10.93;4.83;;;;;;;;;;5017913;28;20221;-82
2023/01/04 05:58:19;;;;;;;10.73;4.10;;;;;;;;;;5031804;28;20280;-82
2023/01/04 06:00:47;;;;;;;17.97;4.80;;;;;;;;;;5045813;28;20223;-82
2023/01/04 06:03:16;;;;;;;10.03;4.70;;;;;;;;;;5049620;28;20209;-82
2023/01/04 06:05:49;;;;;;;6.00;2.63;;;;;;;;;;5036725;28;20206;-82
2023/01/04 06:08:17;;;;;;;13.33;3.90;;;;;;;;;;5020600;28;20229;-82
2023/01/04 06:10:46;;;;;;;16.43;5.33;;;;;;;;;;5027320;28;20331;-82
2023/01/04 06:13:14;;;;;;;16.83;5.50;;;;;;;;;;5032434;28;20256;-82
2023/01/04 06:15:45;;;;;;;7.67;4.27;;;;;;;;;;5045974;28;20210;-82
2023/01/04 06:18:13;;;;;;;19.27;5.30;;;;;;;;;;5031296;28;20191;-82
2023/01/04 06:20:43;;;;;;;15.10;4.03;;;;;;;;;;5028778;28;20209;-82
2023/01/04 06:23:12;;;;;;;16.63;6.17;;;;;;;;;;5029605;28;20198;-82
2023/01/04 06:25:41;;;;;;;12.40;4.40;;;;;;;;;;5047358;28;20209;-82
2023/01/04 06:28:09;;;;;;;17.50;6.20;;;;;;;;;;5016538;28;20300;-82
2023/01/04 06:30:38;;;;;;;16.83;5.73;;;;;;;;;;5030325;28;20198;-82
2023/01/04 06:33:06;;;;;;;16.17;6.10;;;;;;;;;;5028668;28;20291;-82
2023/01/04 06:35:35;;;;;;;18.87;5.17;;;;;;;;;;5016741;28;20214;-82
2023/01/04 06:38:03;;;;;;;16.47;6.03;;;;;;;;;;5016514;28;20216;-82
2023/01/04 06:40:33;;;;;;;19.43;5.27;;;;;;;;;;5018229;28;20205;-82
2023/01/04 06:43:01;;;;;;;15.53;4.53;;;;;;;;;;5036276;28;20202;-82
2023/01/04 06:45:30;;;;;;;14.13;4.80;;;;;;;;;;5056225;28;20251;-82
2023/01/04 06:47:58;;;;;;;11.23;3.77;;;;;;;;;;5045721;28;20214;-82
2023/01/04 06:50:33;;;;;;;18.13;5.03;;;;;;;;;;5039604;28;20207;-81
2023/01/04 06:53:01;;;;;;;10.03;5.23;;;;;;;;;;5044316;28;20260;-81
2023/01/04 06:55:29;;;;;;;16.17;4.10;;;;;;;;;;5066081;28;20222;-81
2023/01/04 06:57:59;;;;;;;10.67;3.87;;;;;;;;;;5024133;28;20210;-82
2023/01/04 07:00:28;;;;;;;16.70;3.93;;;;;;;;;;5048883;28;20232;-82
2023/01/04 07:02:56;;;;;;;21.13;5.97;;;;;;;;;;5052041;28;20324;-82
2023/01/04 07:05:43;;;;;;;22.53;6.57;;;;;;;;;;5025243;28;20209;-82
2023/01/04 07:08:11;;;;;;;18.33;5.93;;;;;;;;;;5022118;28;20264;-82
2023/01/04 07:10:40;;;;;;;10.23;4.43;;;;;;;;;;5044368;28;20191;-81
2023/01/04 07:13:10;;;;;;;21.20;6.57;;;;;;;;;;5019269;28;20212;-82
2023/01/04 07:15:38;;;;;;;26.33;7.83;;;;;;;;;;5035529;28;20278;-82
2023/01/04 07:18:08;;;;;;;20.43;7.13;;;;;;;;;;5052064;28;20202;-82
2023/01/04 07:20:36;;;;;;;16.60;5.20;;;;;;;;;;5052328;28;20201;-82
2023/01/04 07:23:05;;;;;;;16.70;6.57;;;;;;;;;;5035092;28;20220;-82
2023/01/04 07:25:33;;;;;;;21.17;6.53;;;;;;;;;;5035431;28;20210;-82
2023/01/04 07:28:02;;;;;;;22.07;5.10;;;;;;;;;;5030091;28;20221;-82
2023/01/04 07:30:32;;;;;;;20.80;5.80;;;;;;;;;;5028710;28;20225;-82
2023/01/04 07:33:00;;;;;;;10.23;2.53;;;;;;;;;;5022256;28;20198;-82
2023/01/04 07:35:29;;;;;;;16.90;5.67;;;;;;;;;;5021784;28;20198;-82
2023/01/04 07:37:57;;;;;;;24.20;7.23;;;;;;;;;;5042335;28;20190;-82
2023/01/04 07:40:26;;;;;;;24.27;5.73;;;;;;;;;;5026095;28;20244;-82
2023/01/04 07:42:56;;;;;;;19.97;6.03;;;;;;;;;;5023781;28;20203;-82
2023/01/04 07:45:25;;;;;;;22.83;6.47;;;;;;;;;;5035050;28;20204;-82
2023/01/04 07:47:55;;;;;;;20.47;7.03;;;;;;;;;;5035510;28;20282;-81
2023/01/04 07:50:23;;;;;;;12.37;4.20;;;;;;;;;;5034553;28;20255;-82
2023/01/04 07:52:53;;;;;;;22.33;4.13;;;;;;;;;;5035322;28;20209;-82
2023/01/04 07:55:22;;;;;;;14.40;4.93;;;;;;;;;;5034336;28;20230;-82
2023/01/04 07:57:54;;;;;;;21.60;5.23;;;;;;;;;;5012012;28;20208;-82
2023/01/04 08:00:24;;;;;;;19.37;5.70;;;;;;;;;;5025674;28;20227;-82
2023/01/04 08:02:54;;;;;;;14.20;3.97;;;;;;;;;;5026234;28;20240;-82
2023/01/04 08:05:24;;;;;;;12.67;3.63;;;;;;;;;;5038620;28;20198;-81
2023/01/04 08:07:54;;;;;;;10.83;3.97;;;;;;;;;;5025801;28;20214;-82
2023/01/04 08:10:23;;;;;;;12.63;4.63;;;;;;;;;;5027481;28;20231;-82
2023/01/04 08:12:55;;;;;;;8.43;2.80;;;;;;;;;;5054386;28;20210;-82
2023/01/04 08:15:24;;;;;;;10.60;3.20;;;;;;;;;;5019576;28;20203;-81
2023/01/04 08:17:52;;;;;;;10.50;4.63;;;;;;;;;;5034742;28;20206;-82
2023/01/04 08:20:22;;;;;;;11.90;3.73;;;;;;;;;;5038651;28;20256;-82
2023/01/04 08:22:51;;;;;;;15.30;4.20;;;;;;;;;;5048325;28;20210;-82
2023/01/04 08:25:21;;;;;;;17.57;4.40;;;;;;;;;;5029820;28;20216;-82
2023/01/04 08:27:50;;;;;;;16.73;4.27;;;;;;;;;;5038044;28;20218;-82
2023/01/04 08:30:19;;;;;;;14.57;3.73;;;;;;;;;;5038847;28;20293;-82
2023/01/04 08:32:52;;;;;;;3.63;2.50;;;;;;;;;;5027150;28;20191;-82
2023/01/04 08:35:25;;;;;;;16.63;4.17;;;;;;;;;;5014634;28;20293;-82
2023/01/04 08:37:58;;;;;;;7.87;2.97;;;;;;;;;;5035161;28;20215;-82
2023/01/04 08:40:50;;;;;;;9.30;3.73;;;;;;;;;;5051766;28;20252;-82
2023/01/04 08:43:31;;;;;;;11.53;3.33;;;;;;;;;;5033615;28;20271;-84
2023/01/04 08:45:59;;;;;;;13.33;4.07;;;;;;;;;;5030841;28;20209;-82
2023/01/04 08:48:28;;;;;;;23.20;5.83;;;;;;;;;;5032228;28;20244;-82
2023/01/04 08:51:00;;;;;;;26.47;4.50;;;;;;;;;;5031622;28;20201;-82
2023/01/04 08:53:29;;;;;;;20.43;5.97;;;;;;;;;;5029585;28;20198;-82
2023/01/04 08:55:59;;;;;;;28.13;5.97;;;;;;;;;;5027398;28;20225;-81
2023/01/04 08:58:30;;;;;;;15.70;5.27;;;;;;;;;;5049257;28;20206;-82
2023/01/04 09:01:01;;;;;;;19.37;5.83;;;;;;;;;;5031944;28;20248;-81
2023/01/04 09:03:29;;;;;;;9.57;5.03;;;;;;;;;;5029315;28;20210;-81
2023/01/04 09:06:04;;;;;;;20.00;6.83;;;;;;;;;;5028238;28;20198;-80
2023/01/04 09:08:33;;;;;;;25.73;7.93;;;;;;;;;;5030490;28;20221;-82
2023/01/04 09:11:05;;;;;;;12.57;3.63;;;;;;;;;;5025688;28;20257;-80
2023/01/04 09:13:33;;;;;;;15.37;5.83;;;;;;;;;;5031102;28;20220;-83
2023/01/04 09:16:02;;;;;;;31.57;6.30;;;;;;;;;;5047360;28;20198;-82
2023/01/04 09:18:31;;;;;;;36.03;5.57;;;;;;;;;;5032419;28;20186;-81
2023/01/04 09:21:01;;;;;;;27.53;7.50;;;;;;;;;;5028590;28;20229;-82
2023/01/04 09:23:32;;;;;;;18.70;7.00;;;;;;;;;;5030364;28;20217;-82
2023/01/04 09:26:05;;;;;;;34.27;3.93;;;;;;;;;;5046778;28;20214;-82
2023/01/04 09:28:38;;;;;;;22.23;6.37;;;;;;;;;;5049104;28;20210;-81
2023/01/04 09:31:07;;;;;;;26.53;6.37;;;;;;;;;;5030017;28;20332;-81
2023/01/04 09:33:36;;;;;;;16.73;5.17;;;;;;;;;;5024073;28;20225;-81
2023/01/04 09:36:24;;;;;;;18.27;5.27;;;;;;;;;;5030329;28;20203;-82
2023/01/04 09:38:54;;;;;;;23.77;7.53;;;;;;;;;;5050954;28;20199;-81
2023/01/04 09:41:26;;;;;;;35.50;7.80;;;;;;;;;;5031826;28;20198;-82
2023/01/04 09:43:55;;;;;;;38.13;8.50;;;;;;;;;;5026708;28;20210;-81
2023/01/04 09:46:29;;;;;;;23.47;7.77;;;;;;;;;;5023132;28;20206;-82
2023/01/04 09:49:04;;;;;;;27.03;5.83;;;;;;;;;;5031224;28;20215;-80
2023/01/04 09:51:35;;;;;;;11.00;5.27;;;;;;;;;;5033959;28;20245;-83
2023/01/04 09:54:10;;;;;;;24.93;5.70;;;;;;;;;;5030582;28;20233;-82
2023/01/04 09:56:42;;;;;;;15.43;4.73;;;;;;;;;;5034625;28;20233;-83
2023/01/04 09:59:15;;;;;;;18.00;4.57;;;;;;;;;;5026695;28;20198;-83
2023/01/04 10:01:46;;;;;;;22.80;7.03;;;;;;;;;;5047022;28;20265;-83
2023/01/04 10:04:19;;;;;;;24.67;6.17;;;;;;;;;;5049116;28;20209;-82
2023/01/04 10:06:48;;;;;;;13.83;4.90;;;;;;;;;;5030711;28;20206;-83
2023/01/04 10:09:18;;;;;;;21.57;5.93;;;;;;;;;;5045816;28;20231;-84
2023/01/04 10:12:02;;;;;;;11.43;2.93;;;;;;;;;;5028824;28;20292;-84
2023/01/04 10:14:45;;;;;;;23.10;5.23;;;;;;;;;;5029854;28;20305;-83
2023/01/04 10:17:19;;;;;;;17.13;4.60;;;;;;;;;;5026941;28;20214;-85
2023/01/04 10:20:24;;;;;;;25.10;6.17;;;;;;;;;;5046230;28;20340;-87
2023/01/04 10:23:16;;;;;;;31.80;10.10;;;;;;;;;;5029552;28;20206;-89
2023/01/04 10:25:49;;;;;;;21.07;7.07;;;;;;;;;;5030482;28;20264;-90
2023/01/04 10:28:24;;;;;;;17.20;4.80;;;;;;;;;;5028509;28;20206;-87
2023/01/04 10:30:57;;;;;;;13.60;5.00;;;;;;;;;;5028107;28;20206;-88
2023/01/04 10:33:29;;;;;;;23.87;5.43;;;;;;;;;;5032308;28;20206;-90
2023/01/04 10:35:58;;;;;;;12.63;3.40;;;;;;;;;;5032603;28;20217;-87
2023/01/04 10:38:29;;;;;;;9.10;3.47;;;;;;;;;;5026620;28;20293;-87
2023/01/04 10:41:00;;;;;;;10.73;3.40;;;;;;;;;;5029285;28;20268;-86
2023/01/04 10:43:36;;;;;;;11.53;3.70;;;;;;;;;;5024720;28;20206;-88
2023/01/04 10:46:27;;;;;;;4.00;2.23;;;;;;;;;;5028157;28;20471;-88
2023/01/04 10:48:59;;;;;;;8.43;2.73;;;;;;;;;;5030272;28;20202;-89
2023/01/04 10:51:30;;;;;;;13.13;3.33;;;;;;;;;;5025449;28;20300;-88
2023/01/04 10:54:05;;;;;;;3.27;2.73;;;;;;;;;;5030480;28;20198;-90
2023/01/04 10:56:40;;;;;;;11.23;2.93;;;;;;;;;;5025986;28;20230;-89
2023/01/04 10:59:13;;;;;;;13.20;4.07;;;;;;;;;;5029391;28;20206;-88
2023/01/04 11:01:44;;;;;;;6.47;2.87;;;;;;;;;;5027567;28;20288;-87
2023/01/04 11:04:16;;;;;;;10.70;2.17;;;;;;;;;;5029175;28;20210;-86
2023/01/04 11:06:48;;;;;;;12.43;3.13;;;;;;;;;;5030411;28;20213;-85
2023/01/04 11:09:18;;;;;;;6.60;3.57;;;;;;;;;;5049077;28;20245;-86
2023/01/04 11:11:56;;;;;;;5.50;2.17;;;;;;;;;;5030002;28;20194;-87
2023/01/04 11:14:25;;;;;;;12.67;3.07;;;;;;;;;;5031180;28;20278;-87
2023/01/04 11:17:00;;;;;;;4.67;2.40;;;;;;;;;;5029407;28;20205;-87
2023/01/04 11:19:29;;;;;;;6.70;2.80;;;;;;;;;;5026581;28;20198;-86
2023/01/04 11:22:00;;;;;;;5.77;2.60;;;;;;;;;;5029135;28;20198;-88
2023/01/04 11:24:30;;;;;;;8.53;2.67;;;;;;;;;;5046227;28;20210;-89
2023/01/04 11:27:06;;;;;;;10.43;3.97;;;;;;;;;;5031696;28;20224;-89
2023/01/04 11:29:39;;;;;;;7.63;2.97;;;;;;;;;;5045825;28;20280;-87
2023/01/04 11:32:16;;;;;;;10.30;2.30;;;;;;;;;;5029869;28;20206;-90
2023/01/04 11:34:46;;;;;;;3.90;1.77;;;;;;;;;;5026078;28;20214;-89
2023/01/04 11:37:32;;;;;;;6.27;3.23;;;;;;;;;;5045203;28;20283;-90
2023/01/04 11:40:18;;;;;;;7.83;2.13;;;;;;;;;;5045698;28;20204;-90
2023/01/04 11:42:49;;;;;;;16.10;5.60;;;;;;;;;;5030524;28;20201;-90
2023/01/04 11:45:19;;;;;;;20.20;4.03;;;;;;;;;;5030229;28;20206;-89
2023/01/04 11:47:49;;;;;;;8.43;3.23;;;;;;;;;;5028585;28;20206;-91
2023/01/04 11:50:38;;;;;;;18.17;6.00;;;;;;;;;;5044697;28;20218;-91
2023/01/04 11:53:22;;;;;;;16.77;4.83;;;;;;;;;;5030037;28;20232;-88
2023/01/04 11:56:08;;;;;;;13.93;6.53;;;;;;;;;;5027100;28;20233;-92
2023/01/04 11:58:40;;;;;;;16.63;4.37;;;;;;;;;;5030664;28;20233;-88
2023/01/04 12:01:44;;;;;;;23.10;3.77;;;;;;;;;;5027309;28;20275;-91
2023/01/04 12:04:42;;;;;;;15.33;4.37;;;;;;;;;;5022632;28;20204;-88
2023/01/04 12:07:44;;;;;;;14.53;3.83;;;;;;;;;;4970792;28;20210;-89
2023/01/04 12:10:22;;;;;;;16.93;5.00;;;;;;;;;;5025821;28;20210;-91
2023/01/04 12:13:01;;;;;;;17.23;4.10;;;;;;;;;;5024752;28;20207;-90
2023/01/04 12:15:37;;;;;;;12.40;3.00;;;;;;;;;;5028850;28;20213;-90
2023/01/04 12:18:13;;;;;;;14.47;3.60;;;;;;;;;;5031355;28;20197;-89
2023/01/04 12:20:51;;;;;;;12.97;5.47;;;;;;;;;;5027676;28;20198;-93
2023/01/04 12:23:33;;;;;;;13.80;4.77;;;;;;;;;;5027039;28;20201;-90
2023/01/04 12:26:07;;;;;;;14.67;4.73;;;;;;;;;;5026275;28;20210;-89
2023/01/04 12:29:04;;;;;;;13.63;4.10;;;;;;;;;;5029340;28;20259;-90
2023/01/04 12:31:39;;;;;;;13.60;3.17;;;;;;;;;;5025861;28;20225;-89
2023/01/04 12:34:38;;;;;;;22.83;4.13;;;;;;;;;;5029872;28;20238;-90
2023/01/04 12:37:07;;;;;;;10.00;4.13;;;;;;;;;;5042651;28;20194;-89
2023/01/04 12:39:42;;;;;;;13.67;4.00;;;;;;;;;;5028476;28;20215;-89
2023/01/04 12:42:14;;;;;;;19.67;3.83;;;;;;;;;;5028998;28;20267;-89
2023/01/04 12:45:10;;;;;;;18.13;5.23;;;;;;;;;;5048417;28;20207;-90
2023/01/04 12:50:33;;;;;;;15.37;5.17;;;;;;;;;;5048940;28;20222;-91
2023/01/04 12:53:09;;;;;;;23.50;5.63;;;;;;;;;;5030386;28;20224;-88
2023/01/04 12:56:01;;;;;;;7.67;3.10;;;;;;;;;;5031087;28;20226;-87
2023/01/04 12:58:41;;;;;;;12.97;4.37;;;;;;;;;;5030907;28;20206;-88
2023/01/04 13:01:30;;;;;;;16.47;4.40;;;;;;;;;;5029724;28;20226;-90
2023/01/04 13:04:03;;;;;;;7.77;3.17;;;;;;;;;;5029002;28;20266;-88
2023/01/04 13:06:37;;;;;;;15.77;4.10;;;;;;;;;;5029091;28;20213;-88
2023/01/04 13:09:10;;;;;;;23.40;5.73;;;;;;;;;;5050991;28;20218;-88
2023/01/04 13:11:51;;;;;;;19.67;5.23;;;;;;;;;;5029020;28;20272;-88
2023/01/04 13:14:34;;;;;;;12.40;2.77;;;;;;;;;;5032162;28;20205;-88
2023/01/04 13:17:24;;;;;;;14.50;4.80;;;;;;;;;;5032727;28;20211;-89
2023/01/04 13:20:07;;;;;;;19.13;5.13;;;;;;;;;;5023500;28;20198;-89
2023/01/04 13:22:36;;;;;;;10.90;4.07;;;;;;;;;;5031700;28;20241;-89
2023/01/04 13:25:16;;;;;;;11.30;3.70;;;;;;;;;;5027053;28;20252;-89
2023/01/04 13:28:19;;;;;;;14.73;4.97;;;;;;;;;;5002529;28;20217;-90
2023/01/04 13:31:00;;;;;;;11.23;3.60;;;;;;;;;;5027005;28;20232;-90
2023/01/04 13:33:33;;;;;;;8.80;3.63;;;;;;;;;;5046310;28;20206;-90
2023/01/04 13:36:13;;;;;;;16.50;4.37;;;;;;;;;;5031931;28;20260;-90
2023/01/04 13:38:42;;;;;;;11.57;2.53;;;;;;;;;;5026549;28;20198;-88
2023/01/04 13:41:25;;;;;;;13.37;4.27;;;;;;;;;;5028716;28;20198;-93
2023/01/04 13:44:01;;;;;;;11.75;3.97;;;;;;;;;;5027779;28;20464;-90
2023/01/04 13:46:31;;;;;;;16.30;5.60;;;;;;;;;;5028910;28;20205;-90
2023/01/04 13:49:01;;;;;;;13.43;4.87;;;;;;;;;;5029182;28;20214;-86
2023/01/04 13:51:35;;;;;;;7.23;2.77;;;;;;;;;;5030000;28;20278;-90
2023/01/04 13:54:07;;;;;;;5.17;2.13;;;;;;;;;;5028782;28;20233;-88
2023/01/04 13:56:36;;;;;;;8.80;4.03;;;;;;;;;;5029892;28;20225;-88
2023/01/04 13:59:04;;;;;;;11.97;4.67;;;;;;;;;;5029081;28;20293;-88
2023/01/04 14:01:35;;;;;;;15.17;4.87;;;;;;;;;;5030504;28;20283;-86
2023/01/04 14:04:05;;;;;;;12.53;3.70;;;;;;;;;;5030901;28;20208;-90
2023/01/04 14:06:40;;;;;;;12.90;3.77;;;;;;;;;;5027867;28;20221;-86
2023/01/04 14:09:19;;;;;;;9.43;3.67;;;;;;;;;;5022480;28;20210;-89
2023/01/04 14:12:00;;;;;;;20.50;4.93;;;;;;;;;;5031686;28;20241;-88
2023/01/04 14:14:38;;;;;;;8.97;3.40;;;;;;;;;;5044998;28;20264;-88
2023/01/04 14:17:21;;;;;;;8.30;3.00;;;;;;;;;;5024867;28;20198;-88
2023/01/04 14:19:53;;;;;;;9.63;3.47;;;;;;;;;;5046264;28;20248;-87
2023/01/04 14:22:39;;;;;;;17.17;4.23;;;;;;;;;;5028157;28;20195;-86
2023/01/04 14:25:26;;;;;;;18.97;3.83;;;;;;;;;;5027883;28;20255;-88
2023/01/04 14:28:16;;;;;;;15.57;4.23;;;;;;;;;;5029381;28;20256;-88
2023/01/04 14:30:46;;;;;;;9.00;4.17;;;;;;;;;;5042045;28;20203;-88
2023/01/04 14:33:16;;;;;;;15.90;4.27;;;;;;;;;;5029162;28;20298;-87
2023/01/04 14:35:45;;;;;;;16.60;4.63;;;;;;;;;;5029987;28;20202;-87
2023/01/04 14:38:18;;;;;;;7.70;2.80;;;;;;;;;;5031611;28;20229;-87
2023/01/04 14:40:47;;;;;;;13.43;3.77;;;;;;;;;;5030448;28;20229;-87
2023/01/04 14:43:35;;;;;;;14.03;4.43;;;;;;;;;;5028134;28;20270;-87
2023/01/04 14:46:04;;;;;;;15.20;5.27;;;;;;;;;;5044836;28;20230;-88
2023/01/04 14:48:32;;;;;;;6.00;2.73;;;;;;;;;;5024724;28;20198;-86
2023/01/04 14:51:01;;;;;;;18.07;2.73;;;;;;;;;;5027203;28;20210;-86
2023/01/04 14:53:30;;;;;;;10.90;3.67;;;;;;;;;;5022171;28;20267;-87
2023/01/04 14:55:58;;;;;;;13.67;3.57;;;;;;;;;;5045082;28;20214;-87
2023/01/04 14:58:27;;;;;;;8.97;3.00;;;;;;;;;;5029614;28;20205;-88
2023/01/04 15:00:57;;;;;;;13.83;4.63;;;;;;;;;;5031821;28;20225;-88
2023/01/04 15:03:26;;;;;;;11.23;5.33;;;;;;;;;;5031476;28;20229;-87
2023/01/04 15:05:54;;;;;;;11.60;3.43;;;;;;;;;;5026837;28;20202;-87
2023/01/04 15:08:26;;;;;;;11.20;2.77;;;;;;;;;;5026925;28;20207;-87
2023/01/04 15:10:54;;;;;;;12.00;3.33;;;;;;;;;;5029315;28;20206;-88
2023/01/04 15:13:43;;;;;;;9.70;3.63;;;;;;;;;;5023957;28;20198;-89
2023/01/04 15:16:16;;;;;;;9.87;3.20;;;;;;;;;;5028762;28;20289;-88
2023/01/04 15:18:45;;;;;;;8.00;3.40;;;;;;;;;;5048146;28;20297;-87
2023/01/04 15:21:14;;;;;;;11.47;3.40;;;;;;;;;;5027949;28;20210;-87
2023/01/04 15:23:43;;;;;;;15.87;5.00;;;;;;;;;;5030298;28;20204;-85
2023/01/04 15:26:12;;;;;;;20.43;4.70;;;;;;;;;;5021796;28;20206;-88
2023/01/04 15:28:40;;;;;;;20.30;4.30;;;;;;;;;;5023600;28;20307;-89
2023/01/04 15:31:10;;;;;;;12.23;4.13;;;;;;;;;;5030987;28;20203;-88
2023/01/04 15:33:40;;;;;;;22.37;6.47;;;;;;;;;;5043302;28;20214;-89
2023/01/04 15:36:11;;;;;;;10.53;4.27;;;;;;;;;;5030391;28;20199;-90
2023/01/04 15:38:43;;;;;;;24.03;6.60;;;;;;;;;;5026442;28;20204;-89
2023/01/04 15:42:57;;;;;;;16.83;4.57;;;;;;;;;;5040025;28;20202;-89
2023/01/04 15:44:02;;;;;;;10.33;3.23;;;;;;;;;;5027093;28;20210;-89
2023/01/04 15:46:31;;;;;;;17.30;5.53;;;;;;;;;;5030069;28;20241;-89
2023/01/04 15:49:01;;;;;;;18.07;4.93;;;;;;;;;;5028815;28;20218;-88
2023/01/04 15:51:29;;;;;;;25.57;5.10;;;;;;;;;;5029591;28;20229;-88